sensor_id;sensor_type;location;lat;lon;timestamp;P1;durP1;ratioP1;P2;durP2;ratioP2
26014;SDS011;13793;55.388;37.844;2023-12-20T00:01:49;9.17;;;6.43;;
26014;SDS011;13793;55.388;37.844;2023-12-20T00:04:19;11.93;;;6.40;;
26014;SDS011;13793;55.388;37.844;2023-12-20T00:06:50;11.53;;;7.33;;
26014;SDS011;13793;55.388;37.844;2023-12-20T00:09:21;10.83;;;7.30;;
26014;SDS011;13793;55.388;37.844;2023-12-20T00:11:52;10.10;;;6.60;;
26014;SDS011;13793;55.388;37.844;2023-12-20T00:14:23;10.20;;;7.03;;
26014;SDS011;13793;55.388;37.844;2023-12-20T00:16:53;11.67;;;6.90;;
26014;SDS011;13793;55.388;37.844;2023-12-20T00:19:27;10.37;;;7.00;;
26014;SDS011;13793;55.388;37.844;2023-12-20T00:21:58;10.73;;;7.10;;
26014;SDS011;13793;55.388;37.844;2023-12-20T00:24:29;11.40;;;7.20;;
26014;SDS011;13793;55.388;37.844;2023-12-20T00:26:59;8.73;;;6.03;;
26014;SDS011;13793;55.388;37.844;2023-12-20T00:29:31;9.47;;;6.57;;
26014;SDS011;13793;55.388;37.844;2023-12-20T00:32:02;9.07;;;5.83;;
26014;SDS011;13793;55.388;37.844;2023-12-20T00:34:33;7.70;;;4.83;;
26014;SDS011;13793;55.388;37.844;2023-12-20T00:37:04;8.53;;;5.07;;
26014;SDS011;13793;55.388;37.844;2023-12-20T00:39:35;6.43;;;4.90;;
26014;SDS011;13793;55.388;37.844;2023-12-20T00:42:06;8.53;;;6.07;;
26014;SDS011;13793;55.388;37.844;2023-12-20T00:44:36;9.67;;;5.80;;
26014;SDS011;13793;55.388;37.844;2023-12-20T00:47:07;8.70;;;5.60;;
26014;SDS011;13793;55.388;37.844;2023-12-20T00:49:38;8.30;;;5.27;;
26014;SDS011;13793;55.388;37.844;2023-12-20T00:52:09;7.13;;;5.43;;
26014;SDS011;13793;55.388;37.844;2023-12-20T00:54:40;7.43;;;5.53;;
26014;SDS011;13793;55.388;37.844;2023-12-20T00:57:11;9.37;;;5.40;;
26014;SDS011;13793;55.388;37.844;2023-12-20T00:59:41;7.50;;;5.13;;
26014;SDS011;13793;55.388;37.844;2023-12-20T01:02:12;8.30;;;5.27;;
26014;SDS011;13793;55.388;37.844;2023-12-20T01:04:44;7.13;;;4.50;;
26014;SDS011;13793;55.388;37.844;2023-12-20T01:07:15;6.67;;;4.70;;
26014;SDS011;13793;55.388;37.844;2023-12-20T01:09:46;6.67;;;4.90;;
26014;SDS011;13793;55.388;37.844;2023-12-20T01:12:17;7.43;;;5.00;;
26014;SDS011;13793;55.388;37.844;2023-12-20T01:14:49;7.70;;;4.70;;
26014;SDS011;13793;55.388;37.844;2023-12-20T01:17:22;8.47;;;5.10;;
26014;SDS011;13793;55.388;37.844;2023-12-20T01:19:53;8.60;;;5.13;;
26014;SDS011;13793;55.388;37.844;2023-12-20T01:22:24;7.63;;;4.70;;
26014;SDS011;13793;55.388;37.844;2023-12-20T01:24:57;7.40;;;4.30;;
26014;SDS011;13793;55.388;37.844;2023-12-20T01:27:29;6.30;;;4.30;;
26014;SDS011;13793;55.388;37.844;2023-12-20T01:30:00;5.17;;;3.30;;
26014;SDS011;13793;55.388;37.844;2023-12-20T01:32:31;4.47;;;2.70;;
26014;SDS011;13793;55.388;37.844;2023-12-20T01:35:02;4.27;;;2.50;;
26014;SDS011;13793;55.388;37.844;2023-12-20T01:37:33;4.87;;;2.60;;
26014;SDS011;13793;55.388;37.844;2023-12-20T01:40:04;3.90;;;2.20;;
26014;SDS011;13793;55.388;37.844;2023-12-20T01:42:37;3.30;;;2.10;;
26014;SDS011;13793;55.388;37.844;2023-12-20T01:45:08;3.03;;;2.03;;
26014;SDS011;13793;55.388;37.844;2023-12-20T01:47:40;3.50;;;2.27;;
26014;SDS011;13793;55.388;37.844;2023-12-20T01:50:11;2.90;;;2.20;;
26014;SDS011;13793;55.388;37.844;2023-12-20T01:52:42;5.67;;;2.13;;
26014;SDS011;13793;55.388;37.844;2023-12-20T01:55:13;3.10;;;2.20;;
26014;SDS011;13793;55.388;37.844;2023-12-20T01:57:45;3.47;;;2.00;;
26014;SDS011;13793;55.388;37.844;2023-12-20T02:00:16;4.83;;;2.40;;
26014;SDS011;13793;55.388;37.844;2023-12-20T02:02:50;3.67;;;2.33;;
26014;SDS011;13793;55.388;37.844;2023-12-20T02:05:21;4.20;;;3.03;;
26014;SDS011;13793;55.388;37.844;2023-12-20T02:07:52;5.97;;;3.20;;
26014;SDS011;13793;55.388;37.844;2023-12-20T02:10:24;7.80;;;4.73;;
26014;SDS011;13793;55.388;37.844;2023-12-20T02:12:55;7.37;;;5.00;;
26014;SDS011;13793;55.388;37.844;2023-12-20T02:15:26;9.20;;;5.50;;
26014;SDS011;13793;55.388;37.844;2023-12-20T02:17:58;11.03;;;6.70;;
26014;SDS011;13793;55.388;37.844;2023-12-20T02:20:31;12.23;;;7.13;;
26014;SDS011;13793;55.388;37.844;2023-12-20T02:23:01;14.47;;;7.80;;
26014;SDS011;13793;55.388;37.844;2023-12-20T02:25:33;17.57;;;8.60;;
26014;SDS011;13793;55.388;37.844;2023-12-20T02:28:04;16.90;;;9.23;;
26014;SDS011;13793;55.388;37.844;2023-12-20T02:30:35;16.57;;;9.77;;
26014;SDS011;13793;55.388;37.844;2023-12-20T02:33:07;20.07;;;10.57;;
26014;SDS011;13793;55.388;37.844;2023-12-20T02:35:40;20.30;;;12.00;;
26014;SDS011;13793;55.388;37.844;2023-12-20T02:38:11;25.30;;;13.80;;
26014;SDS011;13793;55.388;37.844;2023-12-20T02:40:42;26.70;;;14.07;;
26014;SDS011;13793;55.388;37.844;2023-12-20T02:43:13;23.07;;;13.50;;
26014;SDS011;13793;55.388;37.844;2023-12-20T02:45:44;21.43;;;11.97;;
26014;SDS011;13793;55.388;37.844;2023-12-20T02:48:15;22.50;;;11.97;;
26014;SDS011;13793;55.388;37.844;2023-12-20T02:50:46;19.93;;;9.63;;
26014;SDS011;13793;55.388;37.844;2023-12-20T02:53:17;15.20;;;9.43;;
26014;SDS011;13793;55.388;37.844;2023-12-20T02:55:48;15.70;;;9.23;;
26014;SDS011;13793;55.388;37.844;2023-12-20T02:58:19;16.30;;;9.07;;
26014;SDS011;13793;55.388;37.844;2023-12-20T03:00:50;14.20;;;8.53;;
26014;SDS011;13793;55.388;37.844;2023-12-20T03:03:21;12.73;;;7.87;;
26014;SDS011;13793;55.388;37.844;2023-12-20T03:05:52;16.50;;;8.77;;
26014;SDS011;13793;55.388;37.844;2023-12-20T03:08:23;11.97;;;8.13;;
26014;SDS011;13793;55.388;37.844;2023-12-20T03:10:54;12.67;;;8.33;;
26014;SDS011;13793;55.388;37.844;2023-12-20T03:13:31;15.05;;;8.50;;
26014;SDS011;13793;55.388;37.844;2023-12-20T03:16:07;10.33;;;7.50;;
26014;SDS011;13793;55.388;37.844;2023-12-20T03:18:41;11.90;;;7.33;;
26014;SDS011;13793;55.388;37.844;2023-12-20T03:21:12;12.00;;;7.13;;
26014;SDS011;13793;55.388;37.844;2023-12-20T03:23:42;15.00;;;7.47;;
26014;SDS011;13793;55.388;37.844;2023-12-20T03:26:13;10.87;;;6.73;;
26014;SDS011;13793;55.388;37.844;2023-12-20T03:28:45;9.70;;;6.23;;
26014;SDS011;13793;55.388;37.844;2023-12-20T03:31:17;11.87;;;6.40;;
26014;SDS011;13793;55.388;37.844;2023-12-20T03:33:50;13.33;;;6.90;;
26014;SDS011;13793;55.388;37.844;2023-12-20T03:36:22;15.13;;;7.10;;
26014;SDS011;13793;55.388;37.844;2023-12-20T03:38:54;13.80;;;6.77;;
26014;SDS011;13793;55.388;37.844;2023-12-20T03:41:25;12.23;;;6.80;;
26014;SDS011;13793;55.388;37.844;2023-12-20T03:43:56;8.40;;;5.63;;
26014;SDS011;13793;55.388;37.844;2023-12-20T03:46:28;11.23;;;6.43;;
26014;SDS011;13793;55.388;37.844;2023-12-20T03:48:59;14.10;;;5.63;;
26014;SDS011;13793;55.388;37.844;2023-12-20T03:51:30;8.97;;;5.40;;
26014;SDS011;13793;55.388;37.844;2023-12-20T03:54:00;7.63;;;5.30;;
26014;SDS011;13793;55.388;37.844;2023-12-20T03:56:32;10.00;;;6.00;;
26014;SDS011;13793;55.388;37.844;2023-12-20T03:59:03;12.27;;;5.93;;
26014;SDS011;13793;55.388;37.844;2023-12-20T04:01:37;9.87;;;5.40;;
26014;SDS011;13793;55.388;37.844;2023-12-20T04:04:09;8.83;;;6.10;;
26014;SDS011;13793;55.388;37.844;2023-12-20T04:06:40;9.87;;;6.30;;
26014;SDS011;13793;55.388;37.844;2023-12-20T04:09:12;11.03;;;6.63;;
26014;SDS011;13793;55.388;37.844;2023-12-20T04:11:43;10.47;;;6.57;;
26014;SDS011;13793;55.388;37.844;2023-12-20T04:14:14;10.60;;;5.80;;
26014;SDS011;13793;55.388;37.844;2023-12-20T04:16:45;10.07;;;6.07;;
26014;SDS011;13793;55.388;37.844;2023-12-20T04:19:16;9.00;;;5.57;;
26014;SDS011;13793;55.388;37.844;2023-12-20T04:21:47;9.03;;;6.20;;
26014;SDS011;13793;55.388;37.844;2023-12-20T04:24:18;9.07;;;6.10;;
26014;SDS011;13793;55.388;37.844;2023-12-20T04:26:49;9.80;;;6.60;;
26014;SDS011;13793;55.388;37.844;2023-12-20T04:29:20;8.90;;;6.23;;
26014;SDS011;13793;55.388;37.844;2023-12-20T04:31:51;9.83;;;6.50;;
26014;SDS011;13793;55.388;37.844;2023-12-20T04:34:22;8.00;;;5.83;;
26014;SDS011;13793;55.388;37.844;2023-12-20T04:36:53;8.30;;;5.80;;
26014;SDS011;13793;55.388;37.844;2023-12-20T04:39:24;10.50;;;6.03;;
26014;SDS011;13793;55.388;37.844;2023-12-20T04:41:56;7.97;;;4.83;;
26014;SDS011;13793;55.388;37.844;2023-12-20T04:44:27;8.63;;;5.70;;
26014;SDS011;13793;55.388;37.844;2023-12-20T04:46:57;6.73;;;5.07;;
26014;SDS011;13793;55.388;37.844;2023-12-20T04:49:29;7.67;;;5.53;;
26014;SDS011;13793;55.388;37.844;2023-12-20T04:52:00;7.30;;;5.47;;
26014;SDS011;13793;55.388;37.844;2023-12-20T04:54:31;7.77;;;5.20;;
26014;SDS011;13793;55.388;37.844;2023-12-20T04:57:03;7.37;;;5.20;;
26014;SDS011;13793;55.388;37.844;2023-12-20T04:59:34;9.97;;;5.63;;
26014;SDS011;13793;55.388;37.844;2023-12-20T05:02:04;8.40;;;5.27;;
26014;SDS011;13793;55.388;37.844;2023-12-20T05:04:36;6.87;;;5.27;;
26014;SDS011;13793;55.388;37.844;2023-12-20T05:07:07;9.53;;;5.07;;
26014;SDS011;13793;55.388;37.844;2023-12-20T05:09:38;7.80;;;5.50;;
26014;SDS011;13793;55.388;37.844;2023-12-20T05:12:09;6.63;;;4.50;;
26014;SDS011;13793;55.388;37.844;2023-12-20T05:14:40;8.70;;;5.53;;
26014;SDS011;13793;55.388;37.844;2023-12-20T05:17:11;8.83;;;4.90;;
26014;SDS011;13793;55.388;37.844;2023-12-20T05:19:43;8.07;;;4.73;;
26014;SDS011;13793;55.388;37.844;2023-12-20T05:22:13;8.17;;;5.03;;
26014;SDS011;13793;55.388;37.844;2023-12-20T05:24:44;8.00;;;5.03;;
26014;SDS011;13793;55.388;37.844;2023-12-20T05:27:15;8.00;;;4.30;;
26014;SDS011;13793;55.388;37.844;2023-12-20T05:29:46;5.87;;;4.63;;
26014;SDS011;13793;55.388;37.844;2023-12-20T05:32:17;6.13;;;4.57;;
26014;SDS011;13793;55.388;37.844;2023-12-20T05:34:49;6.07;;;4.27;;
26014;SDS011;13793;55.388;37.844;2023-12-20T05:37:20;6.17;;;5.00;;
26014;SDS011;13793;55.388;37.844;2023-12-20T05:39:51;6.73;;;4.50;;
26014;SDS011;13793;55.388;37.844;2023-12-20T05:42:21;7.27;;;4.83;;
26014;SDS011;13793;55.388;37.844;2023-12-20T05:44:52;6.40;;;4.80;;
26014;SDS011;13793;55.388;37.844;2023-12-20T05:47:23;9.77;;;6.00;;
26014;SDS011;13793;55.388;37.844;2023-12-20T05:49:54;8.33;;;5.00;;
26014;SDS011;13793;55.388;37.844;2023-12-20T05:52:25;8.33;;;4.70;;
26014;SDS011;13793;55.388;37.844;2023-12-20T05:54:56;7.77;;;4.93;;
26014;SDS011;13793;55.388;37.844;2023-12-20T05:57:30;8.30;;;5.43;;
26014;SDS011;13793;55.388;37.844;2023-12-20T06:00:02;6.73;;;5.00;;
26014;SDS011;13793;55.388;37.844;2023-12-20T06:02:34;9.37;;;5.20;;
26014;SDS011;13793;55.388;37.844;2023-12-20T06:05:09;10.10;;;4.60;;
26014;SDS011;13793;55.388;37.844;2023-12-20T06:07:40;6.97;;;5.23;;
26014;SDS011;13793;55.388;37.844;2023-12-20T06:10:11;7.67;;;5.10;;
26014;SDS011;13793;55.388;37.844;2023-12-20T06:12:43;5.50;;;4.60;;
26014;SDS011;13793;55.388;37.844;2023-12-20T06:15:15;7.33;;;4.67;;
26014;SDS011;13793;55.388;37.844;2023-12-20T06:17:46;7.77;;;5.17;;
26014;SDS011;13793;55.388;37.844;2023-12-20T06:20:17;6.53;;;4.77;;
26014;SDS011;13793;55.388;37.844;2023-12-20T06:22:48;6.17;;;4.60;;
26014;SDS011;13793;55.388;37.844;2023-12-20T06:25:19;6.63;;;4.93;;
26014;SDS011;13793;55.388;37.844;2023-12-20T06:27:49;7.40;;;4.13;;
26014;SDS011;13793;55.388;37.844;2023-12-20T06:30:20;7.07;;;4.20;;
26014;SDS011;13793;55.388;37.844;2023-12-20T06:32:51;6.60;;;3.73;;
26014;SDS011;13793;55.388;37.844;2023-12-20T06:35:23;6.23;;;3.70;;
26014;SDS011;13793;55.388;37.844;2023-12-20T06:37:54;5.93;;;4.07;;
26014;SDS011;13793;55.388;37.844;2023-12-20T06:40:25;6.60;;;3.77;;
26014;SDS011;13793;55.388;37.844;2023-12-20T06:42:56;5.87;;;4.00;;
26014;SDS011;13793;55.388;37.844;2023-12-20T06:45:28;7.10;;;4.27;;
26014;SDS011;13793;55.388;37.844;2023-12-20T06:47:58;6.30;;;3.83;;
26014;SDS011;13793;55.388;37.844;2023-12-20T06:50:29;6.30;;;3.70;;
26014;SDS011;13793;55.388;37.844;2023-12-20T06:53:00;5.67;;;3.60;;
26014;SDS011;13793;55.388;37.844;2023-12-20T06:55:33;7.60;;;4.27;;
26014;SDS011;13793;55.388;37.844;2023-12-20T06:58:08;7.23;;;4.20;;
26014;SDS011;13793;55.388;37.844;2023-12-20T07:00:39;6.20;;;3.87;;
26014;SDS011;13793;55.388;37.844;2023-12-20T07:03:10;7.13;;;3.80;;
26014;SDS011;13793;55.388;37.844;2023-12-20T07:05:41;3.97;;;3.10;;
26014;SDS011;13793;55.388;37.844;2023-12-20T07:08:12;4.67;;;3.57;;
26014;SDS011;13793;55.388;37.844;2023-12-20T07:10:44;6.73;;;4.00;;
26014;SDS011;13793;55.388;37.844;2023-12-20T07:13:15;4.63;;;3.00;;
26014;SDS011;13793;55.388;37.844;2023-12-20T07:15:46;4.77;;;3.13;;
26014;SDS011;13793;55.388;37.844;2023-12-20T07:18:20;4.27;;;3.00;;
26014;SDS011;13793;55.388;37.844;2023-12-20T07:20:51;4.40;;;2.90;;
26014;SDS011;13793;55.388;37.844;2023-12-20T07:23:24;4.10;;;2.70;;
26014;SDS011;13793;55.388;37.844;2023-12-20T07:25:55;5.57;;;3.00;;
26014;SDS011;13793;55.388;37.844;2023-12-20T07:28:26;5.30;;;3.53;;
26014;SDS011;13793;55.388;37.844;2023-12-20T07:30:58;5.13;;;3.13;;
26014;SDS011;13793;55.388;37.844;2023-12-20T07:33:28;6.63;;;3.60;;
26014;SDS011;13793;55.388;37.844;2023-12-20T07:36:00;4.57;;;3.50;;
26014;SDS011;13793;55.388;37.844;2023-12-20T07:38:31;4.00;;;3.23;;
26014;SDS011;13793;55.388;37.844;2023-12-20T07:41:01;4.17;;;3.07;;
26014;SDS011;13793;55.388;37.844;2023-12-20T07:43:33;3.67;;;2.97;;
26014;SDS011;13793;55.388;37.844;2023-12-20T07:46:04;3.87;;;2.70;;
26014;SDS011;13793;55.388;37.844;2023-12-20T07:48:35;4.17;;;3.20;;
26014;SDS011;13793;55.388;37.844;2023-12-20T07:51:06;3.17;;;2.80;;
26014;SDS011;13793;55.388;37.844;2023-12-20T07:53:38;2.97;;;2.67;;
26014;SDS011;13793;55.388;37.844;2023-12-20T07:56:18;4.00;;;2.90;;
26014;SDS011;13793;55.388;37.844;2023-12-20T07:58:49;3.00;;;2.70;;
26014;SDS011;13793;55.388;37.844;2023-12-20T08:01:21;4.97;;;2.87;;
26014;SDS011;13793;55.388;37.844;2023-12-20T08:03:53;6.07;;;2.70;;
26014;SDS011;13793;55.388;37.844;2023-12-20T08:06:24;3.40;;;2.57;;
26014;SDS011;13793;55.388;37.844;2023-12-20T08:08:55;4.90;;;3.17;;
26014;SDS011;13793;55.388;37.844;2023-12-20T08:11:26;4.13;;;3.30;;
26014;SDS011;13793;55.388;37.844;2023-12-20T08:13:58;5.77;;;3.00;;
26014;SDS011;13793;55.388;37.844;2023-12-20T08:16:29;4.60;;;3.17;;
26014;SDS011;13793;55.388;37.844;2023-12-20T08:19:01;5.93;;;3.63;;
26014;SDS011;13793;55.388;37.844;2023-12-20T08:21:31;4.43;;;3.43;;
26014;SDS011;13793;55.388;37.844;2023-12-20T08:24:03;3.67;;;3.27;;
26014;SDS011;13793;55.388;37.844;2023-12-20T08:26:34;5.97;;;4.00;;
26014;SDS011;13793;55.388;37.844;2023-12-20T08:29:08;5.57;;;3.90;;
26014;SDS011;13793;55.388;37.844;2023-12-20T08:31:40;5.67;;;4.63;;
26014;SDS011;13793;55.388;37.844;2023-12-20T08:34:11;4.60;;;3.57;;
26014;SDS011;13793;55.388;37.844;2023-12-20T08:36:44;7.97;;;4.63;;
26014;SDS011;13793;55.388;37.844;2023-12-20T08:39:14;7.53;;;4.37;;
26014;SDS011;13793;55.388;37.844;2023-12-20T08:41:45;4.87;;;3.77;;
26014;SDS011;13793;55.388;37.844;2023-12-20T08:44:17;4.83;;;4.07;;
26014;SDS011;13793;55.388;37.844;2023-12-20T08:46:48;6.00;;;4.30;;
26014;SDS011;13793;55.388;37.844;2023-12-20T08:49:19;4.80;;;3.90;;
26014;SDS011;13793;55.388;37.844;2023-12-20T08:51:50;3.63;;;3.23;;
26014;SDS011;13793;55.388;37.844;2023-12-20T08:54:21;4.70;;;4.10;;
26014;SDS011;13793;55.388;37.844;2023-12-20T08:56:52;6.77;;;3.90;;
26014;SDS011;13793;55.388;37.844;2023-12-20T08:59:23;5.37;;;4.00;;
26014;SDS011;13793;55.388;37.844;2023-12-20T09:01:54;5.43;;;4.50;;
26014;SDS011;13793;55.388;37.844;2023-12-20T09:04:25;5.23;;;3.93;;
26014;SDS011;13793;55.388;37.844;2023-12-20T09:06:59;7.70;;;4.53;;
26014;SDS011;13793;55.388;37.844;2023-12-20T09:09:30;4.97;;;4.03;;
26014;SDS011;13793;55.388;37.844;2023-12-20T09:12:01;5.27;;;3.70;;
26014;SDS011;13793;55.388;37.844;2023-12-20T09:14:32;5.00;;;4.07;;
26014;SDS011;13793;55.388;37.844;2023-12-20T09:17:03;4.77;;;3.50;;
26014;SDS011;13793;55.388;37.844;2023-12-20T09:19:35;4.10;;;3.40;;
26014;SDS011;13793;55.388;37.844;2023-12-20T09:22:06;4.53;;;3.40;;
26014;SDS011;13793;55.388;37.844;2023-12-20T09:24:37;4.70;;;3.67;;
26014;SDS011;13793;55.388;37.844;2023-12-20T09:27:08;3.90;;;3.23;;
26014;SDS011;13793;55.388;37.844;2023-12-20T09:29:39;4.33;;;3.47;;
26014;SDS011;13793;55.388;37.844;2023-12-20T09:32:10;4.63;;;3.20;;
26014;SDS011;13793;55.388;37.844;2023-12-20T09:34:41;4.27;;;3.40;;
26014;SDS011;13793;55.388;37.844;2023-12-20T09:37:12;5.83;;;4.40;;
26014;SDS011;13793;55.388;37.844;2023-12-20T09:39:43;4.87;;;4.00;;
26014;SDS011;13793;55.388;37.844;2023-12-20T09:42:17;6.60;;;4.03;;
26014;SDS011;13793;55.388;37.844;2023-12-20T09:44:49;3.93;;;3.50;;
26014;SDS011;13793;55.388;37.844;2023-12-20T09:47:20;4.17;;;3.10;;
26014;SDS011;13793;55.388;37.844;2023-12-20T09:49:53;4.80;;;3.53;;
26014;SDS011;13793;55.388;37.844;2023-12-20T09:52:24;5.93;;;4.07;;
26014;SDS011;13793;55.388;37.844;2023-12-20T09:54:55;4.67;;;3.10;;
26014;SDS011;13793;55.388;37.844;2023-12-20T09:57:28;4.97;;;3.70;;
26014;SDS011;13793;55.388;37.844;2023-12-20T09:59:59;6.43;;;3.60;;
26014;SDS011;13793;55.388;37.844;2023-12-20T10:02:32;5.97;;;3.80;;
26014;SDS011;13793;55.388;37.844;2023-12-20T10:05:03;4.83;;;3.60;;
26014;SDS011;13793;55.388;37.844;2023-12-20T10:07:37;6.37;;;3.63;;
26014;SDS011;13793;55.388;37.844;2023-12-20T10:10:08;4.43;;;3.33;;
26014;SDS011;13793;55.388;37.844;2023-12-20T10:12:39;5.43;;;4.00;;
26014;SDS011;13793;55.388;37.844;2023-12-20T10:15:10;4.80;;;3.30;;
26014;SDS011;13793;55.388;37.844;2023-12-20T10:17:41;5.40;;;4.03;;
26014;SDS011;13793;55.388;37.844;2023-12-20T10:20:12;5.63;;;3.90;;
26014;SDS011;13793;55.388;37.844;2023-12-20T10:22:43;5.03;;;3.90;;
26014;SDS011;13793;55.388;37.844;2023-12-20T10:25:15;5.57;;;4.23;;
26014;SDS011;13793;55.388;37.844;2023-12-20T10:27:46;6.23;;;3.80;;
26014;SDS011;13793;55.388;37.844;2023-12-20T10:30:17;4.37;;;3.70;;
26014;SDS011;13793;55.388;37.844;2023-12-20T10:32:48;5.47;;;4.03;;
26014;SDS011;13793;55.388;37.844;2023-12-20T10:35:19;4.30;;;3.70;;
26014;SDS011;13793;55.388;37.844;2023-12-20T10:37:51;4.07;;;3.50;;
26014;SDS011;13793;55.388;37.844;2023-12-20T10:40:24;6.37;;;3.90;;
26014;SDS011;13793;55.388;37.844;2023-12-20T10:42:58;5.47;;;4.07;;
26014;SDS011;13793;55.388;37.844;2023-12-20T10:45:30;6.03;;;4.13;;
26014;SDS011;13793;55.388;37.844;2023-12-20T10:48:01;5.50;;;3.97;;
26014;SDS011;13793;55.388;37.844;2023-12-20T10:50:32;6.70;;;4.03;;
26014;SDS011;13793;55.388;37.844;2023-12-20T10:53:05;4.47;;;3.47;;
26014;SDS011;13793;55.388;37.844;2023-12-20T10:55:36;5.70;;;3.97;;
26014;SDS011;13793;55.388;37.844;2023-12-20T10:58:08;7.07;;;4.20;;
26014;SDS011;13793;55.388;37.844;2023-12-20T11:00:40;5.50;;;4.00;;
26014;SDS011;13793;55.388;37.844;2023-12-20T11:03:11;5.30;;;3.40;;
26014;SDS011;13793;55.388;37.844;2023-12-20T11:05:53;5.87;;;4.07;;
26014;SDS011;13793;55.388;37.844;2023-12-20T11:11:12;7.33;;;3.90;;
26014;SDS011;13793;55.388;37.844;2023-12-20T11:14:00;6.43;;;3.93;;
26014;SDS011;13793;55.388;37.844;2023-12-20T11:16:39;6.83;;;4.53;;
26014;SDS011;13793;55.388;37.844;2023-12-20T11:19:08;5.00;;;3.90;;
26014;SDS011;13793;55.388;37.844;2023-12-20T11:21:39;5.53;;;4.20;;
26014;SDS011;13793;55.388;37.844;2023-12-20T11:24:10;7.03;;;4.20;;
26014;SDS011;13793;55.388;37.844;2023-12-20T11:26:41;5.63;;;4.30;;
26014;SDS011;13793;55.388;37.844;2023-12-20T11:29:30;5.77;;;4.43;;
26014;SDS011;13793;55.388;37.844;2023-12-20T11:34:59;5.83;;;4.60;;
26014;SDS011;13793;55.388;37.844;2023-12-20T11:37:39;5.37;;;4.20;;
26014;SDS011;13793;55.388;37.844;2023-12-20T11:40:16;6.28;;;4.00;;
26014;SDS011;13793;55.388;37.844;2023-12-20T11:42:51;6.20;;;4.23;;
26014;SDS011;13793;55.388;37.844;2023-12-20T11:45:24;6.30;;;4.90;;
26014;SDS011;13793;55.388;37.844;2023-12-20T11:47:56;5.77;;;4.73;;
26014;SDS011;13793;55.388;37.844;2023-12-20T11:50:27;7.70;;;4.80;;
26014;SDS011;13793;55.388;37.844;2023-12-20T11:52:59;7.90;;;5.37;;
26014;SDS011;13793;55.388;37.844;2023-12-20T11:55:30;9.20;;;5.80;;
26014;SDS011;13793;55.388;37.844;2023-12-20T11:58:01;7.97;;;5.13;;
26014;SDS011;13793;55.388;37.844;2023-12-20T12:00:32;7.33;;;5.27;;
26014;SDS011;13793;55.388;37.844;2023-12-20T12:03:03;8.23;;;5.67;;
26014;SDS011;13793;55.388;37.844;2023-12-20T12:05:34;7.40;;;4.93;;
26014;SDS011;13793;55.388;37.844;2023-12-20T12:08:06;6.90;;;5.00;;
26014;SDS011;13793;55.388;37.844;2023-12-20T12:10:37;7.03;;;4.50;;
26014;SDS011;13793;55.388;37.844;2023-12-20T12:13:08;6.67;;;4.90;;
26014;SDS011;13793;55.388;37.844;2023-12-20T12:15:38;6.13;;;4.73;;
26014;SDS011;13793;55.388;37.844;2023-12-20T12:18:15;9.30;;;4.97;;
26014;SDS011;13793;55.388;37.844;2023-12-20T12:20:46;6.23;;;4.53;;
26014;SDS011;13793;55.388;37.844;2023-12-20T12:23:22;6.77;;;4.60;;
26014;SDS011;13793;55.388;37.844;2023-12-20T12:25:51;5.57;;;4.50;;
26014;SDS011;13793;55.388;37.844;2023-12-20T12:28:25;7.00;;;4.60;;
26014;SDS011;13793;55.388;37.844;2023-12-20T12:30:58;8.17;;;5.20;;
26014;SDS011;13793;55.388;37.844;2023-12-20T12:33:29;8.50;;;5.20;;
26014;SDS011;13793;55.388;37.844;2023-12-20T12:36:00;7.00;;;5.03;;
26014;SDS011;13793;55.388;37.844;2023-12-20T12:38:32;6.37;;;4.37;;
26014;SDS011;13793;55.388;37.844;2023-12-20T12:41:04;6.80;;;4.77;;
26014;SDS011;13793;55.388;37.844;2023-12-20T12:43:35;6.80;;;4.33;;
26014;SDS011;13793;55.388;37.844;2023-12-20T12:46:06;5.97;;;4.63;;
26014;SDS011;13793;55.388;37.844;2023-12-20T12:48:37;4.53;;;3.50;;
26014;SDS011;13793;55.388;37.844;2023-12-20T12:51:08;5.13;;;3.57;;
26014;SDS011;13793;55.388;37.844;2023-12-20T12:53:40;3.90;;;3.17;;
26014;SDS011;13793;55.388;37.844;2023-12-20T12:56:12;6.40;;;3.17;;
26014;SDS011;13793;55.388;37.844;2023-12-20T12:58:43;4.90;;;3.70;;
26014;SDS011;13793;55.388;37.844;2023-12-20T13:01:14;4.67;;;3.20;;
26014;SDS011;13793;55.388;37.844;2023-12-20T13:03:45;5.00;;;3.17;;
26014;SDS011;13793;55.388;37.844;2023-12-20T13:06:16;3.73;;;3.33;;
26014;SDS011;13793;55.388;37.844;2023-12-20T13:08:48;3.60;;;3.00;;
26014;SDS011;13793;55.388;37.844;2023-12-20T13:11:19;5.50;;;3.30;;
26014;SDS011;13793;55.388;37.844;2023-12-20T13:13:50;5.20;;;3.83;;
26014;SDS011;13793;55.388;37.844;2023-12-20T13:16:21;4.53;;;3.63;;
26014;SDS011;13793;55.388;37.844;2023-12-20T13:18:53;5.77;;;3.80;;
26014;SDS011;13793;55.388;37.844;2023-12-20T13:21:24;6.40;;;3.90;;
26014;SDS011;13793;55.388;37.844;2023-12-20T13:23:55;6.30;;;3.40;;
26014;SDS011;13793;55.388;37.844;2023-12-20T13:26:26;4.67;;;3.47;;
26014;SDS011;13793;55.388;37.844;2023-12-20T13:28:57;5.03;;;3.40;;
26014;SDS011;13793;55.388;37.844;2023-12-20T13:31:28;5.60;;;3.80;;
26014;SDS011;13793;55.388;37.844;2023-12-20T13:33:59;5.13;;;3.83;;
26014;SDS011;13793;55.388;37.844;2023-12-20T13:36:30;4.07;;;3.30;;
26014;SDS011;13793;55.388;37.844;2023-12-20T13:39:01;4.27;;;3.13;;
26014;SDS011;13793;55.388;37.844;2023-12-20T13:41:34;4.10;;;3.23;;
26014;SDS011;13793;55.388;37.844;2023-12-20T13:44:05;2.97;;;2.67;;
26014;SDS011;13793;55.388;37.844;2023-12-20T13:46:36;3.50;;;2.73;;
26014;SDS011;13793;55.388;37.844;2023-12-20T13:49:07;4.50;;;3.07;;
26014;SDS011;13793;55.388;37.844;2023-12-20T13:51:38;3.83;;;3.43;;
26014;SDS011;13793;55.388;37.844;2023-12-20T13:54:09;5.33;;;3.60;;
26014;SDS011;13793;55.388;37.844;2023-12-20T13:56:40;5.37;;;3.47;;
26014;SDS011;13793;55.388;37.844;2023-12-20T13:59:12;6.33;;;3.70;;
26014;SDS011;13793;55.388;37.844;2023-12-20T14:01:44;4.33;;;3.77;;
26014;SDS011;13793;55.388;37.844;2023-12-20T14:04:14;6.30;;;4.40;;
26014;SDS011;13793;55.388;37.844;2023-12-20T14:06:46;6.93;;;4.07;;
26014;SDS011;13793;55.388;37.844;2023-12-20T14:09:17;4.70;;;4.17;;
26014;SDS011;13793;55.388;37.844;2023-12-20T14:11:49;6.07;;;4.80;;
26014;SDS011;13793;55.388;37.844;2023-12-20T14:14:20;6.63;;;4.43;;
26014;SDS011;13793;55.388;37.844;2023-12-20T14:16:52;6.83;;;4.57;;
26014;SDS011;13793;55.388;37.844;2023-12-20T14:19:23;7.17;;;5.13;;
26014;SDS011;13793;55.388;37.844;2023-12-20T14:21:54;7.17;;;4.90;;
26014;SDS011;13793;55.388;37.844;2023-12-20T14:24:24;8.43;;;5.47;;
26014;SDS011;13793;55.388;37.844;2023-12-20T14:26:55;7.30;;;5.10;;
26014;SDS011;13793;55.388;37.844;2023-12-20T14:29:27;7.63;;;5.10;;
26014;SDS011;13793;55.388;37.844;2023-12-20T14:31:58;6.47;;;4.73;;
26014;SDS011;13793;55.388;37.844;2023-12-20T14:34:30;6.50;;;4.83;;
26014;SDS011;13793;55.388;37.844;2023-12-20T14:37:01;7.00;;;4.90;;
26014;SDS011;13793;55.388;37.844;2023-12-20T14:39:33;7.00;;;4.90;;
26014;SDS011;13793;55.388;37.844;2023-12-20T14:42:06;5.80;;;4.47;;
26014;SDS011;13793;55.388;37.844;2023-12-20T14:44:39;6.47;;;5.20;;
26014;SDS011;13793;55.388;37.844;2023-12-20T14:47:10;7.00;;;4.73;;
26014;SDS011;13793;55.388;37.844;2023-12-20T14:49:42;7.33;;;5.23;;
26014;SDS011;13793;55.388;37.844;2023-12-20T14:52:14;8.60;;;5.60;;
26014;SDS011;13793;55.388;37.844;2023-12-20T14:54:45;6.73;;;4.77;;
26014;SDS011;13793;55.388;37.844;2023-12-20T14:57:16;7.77;;;5.07;;
26014;SDS011;13793;55.388;37.844;2023-12-20T14:59:47;8.20;;;5.50;;
26014;SDS011;13793;55.388;37.844;2023-12-20T15:02:17;7.20;;;5.73;;
26014;SDS011;13793;55.388;37.844;2023-12-20T15:04:49;6.50;;;5.50;;